createdAt,value
2023-05-05T00:01:52.947Z,3.80
2023-05-05T00:04:22.713Z,5.03
2023-05-05T00:06:49.947Z,4.47
2023-05-05T00:09:17.110Z,6.57
2023-05-05T00:11:44.402Z,7.15
2023-05-05T00:14:13.118Z,8.05
2023-05-05T00:16:40.300Z,4.32
2023-05-05T00:19:07.459Z,5.05
2023-05-05T00:21:34.613Z,4.78
2023-05-05T00:24:01.859Z,4.85
2023-05-05T00:26:29.312Z,3.90
2023-05-05T00:28:56.429Z,6.57
2023-05-05T00:31:23.772Z,4.45
2023-05-05T00:33:50.932Z,4.93
2023-05-05T00:36:18.408Z,4.25
2023-05-05T00:38:45.489Z,5.20
2023-05-05T00:41:12.749Z,5.05
2023-05-05T00:43:39.895Z,7.68
2023-05-05T00:46:24.251Z,5.72
2023-05-05T00:48:51.971Z,4.47
2023-05-05T00:51:19.315Z,6.93
2023-05-05T00:53:46.677Z,6.68
2023-05-05T00:56:16.271Z,7.82
2023-05-05T00:58:43.677Z,3.63
2023-05-05T01:01:11.843Z,4.05
2023-05-05T01:03:39.858Z,5.43
2023-05-05T01:06:17.002Z,5.60
2023-05-05T01:08:47.250Z,3.97
2023-05-05T01:11:31.048Z,4.10
2023-05-05T01:14:00.946Z,7.47
2023-05-05T01:16:29.881Z,4.05
2023-05-05T01:18:57.016Z,5.28
2023-05-05T01:21:31.653Z,4.05
2023-05-05T01:24:14.099Z,4.22
2023-05-05T01:26:56.454Z,4.22
2023-05-05T01:29:42.022Z,3.70
2023-05-05T01:32:11.279Z,4.15
2023-05-05T01:34:41.264Z,4.13
2023-05-05T01:37:12.388Z,5.75
2023-05-05T01:39:41.609Z,3.90
2023-05-05T01:42:15.000Z,3.80
2023-05-05T01:44:43.578Z,4.03
2023-05-05T01:47:15.355Z,3.63
2023-05-05T01:49:44.820Z,4.70
2023-05-05T01:52:13.157Z,3.72
2023-05-05T01:54:40.961Z,3.33
2023-05-05T01:57:09.299Z,4.05
2023-05-05T01:59:37.183Z,4.00
2023-05-05T02:02:04.759Z,4.88
2023-05-05T02:04:33.376Z,4.05
2023-05-05T02:07:01.816Z,5.32
2023-05-05T02:09:29.617Z,3.97
2023-05-05T02:11:57.996Z,3.30
2023-05-05T02:14:25.981Z,4.55
2023-05-05T02:16:53.436Z,4.57
2023-05-05T02:19:22.140Z,3.20
2023-05-05T02:21:49.237Z,6.97
2023-05-05T02:24:16.396Z,3.60
2023-05-05T02:26:44.874Z,4.95
2023-05-05T02:29:16.069Z,5.25
2023-05-05T02:31:46.066Z,7.88
2023-05-05T02:34:14.188Z,4.18
2023-05-05T02:36:42.420Z,4.75
2023-05-05T02:39:20.085Z,4.25
2023-05-05T02:41:48.128Z,3.45
2023-05-05T02:44:16.282Z,3.60
2023-05-05T02:46:43.624Z,5.35
2023-05-05T02:49:10.989Z,4.80
2023-05-05T02:51:38.085Z,3.72
2023-05-05T02:54:05.389Z,3.95
2023-05-05T02:56:35.580Z,6.47
2023-05-05T02:59:21.374Z,5.40
2023-05-05T03:01:51.560Z,3.65
2023-05-05T03:04:24.050Z,3.25
2023-05-05T03:06:53.982Z,3.45
2023-05-05T03:09:28.435Z,4.05
2023-05-05T03:11:59.622Z,4.10
2023-05-05T03:14:27.882Z,3.42
2023-05-05T03:16:56.412Z,4.20
2023-05-05T03:19:24.019Z,4.68
2023-05-05T03:21:51.309Z,4.72
2023-05-05T03:24:19.701Z,3.97
2023-05-05T03:26:47.363Z,6.18
2023-05-05T03:29:15.137Z,3.00
2023-05-05T03:31:42.435Z,4.50
2023-05-05T03:34:09.581Z,4.57
2023-05-05T03:36:36.886Z,4.65
2023-05-05T03:39:04.316Z,4.45
2023-05-05T03:41:31.475Z,4.20
2023-05-05T03:43:58.582Z,4.35
2023-05-05T03:46:25.798Z,5.72
2023-05-05T03:48:52.936Z,3.80
2023-05-05T03:51:20.124Z,8.73
2023-05-05T03:53:47.567Z,4.03
2023-05-05T03:56:14.701Z,3.88
2023-05-05T03:58:42.081Z,4.15
2023-05-05T04:01:09.359Z,6.00
2023-05-05T04:03:37.833Z,3.35
2023-05-05T04:06:06.029Z,7.15
2023-05-05T04:08:33.343Z,4.90
2023-05-05T04:11:02.594Z,5.47
2023-05-05T04:13:29.673Z,4.22
2023-05-05T04:15:56.947Z,2.95
2023-05-05T04:18:24.095Z,4.18
2023-05-05T04:20:51.384Z,4.65
2023-05-05T04:23:18.571Z,4.13
2023-05-05T04:25:45.867Z,3.90
2023-05-05T04:28:13.041Z,16.35
2023-05-05T04:30:40.267Z,8.00
2023-05-05T04:33:07.385Z,7.18
2023-05-05T04:35:34.574Z,14.75
2023-05-05T04:38:02.989Z,21.50
2023-05-05T04:40:30.184Z,10.48
2023-05-05T04:42:57.386Z,5.88
2023-05-05T04:45:24.576Z,15.10
2023-05-05T04:47:51.830Z,9.45
2023-05-05T04:50:19.086Z,9.57
2023-05-05T04:52:46.464Z,11.77
2023-05-05T04:55:13.719Z,11.70
2023-05-05T04:57:40.901Z,3.70
2023-05-05T05:00:09.379Z,5.20
2023-05-05T05:02:37.572Z,5.05
2023-05-05T05:05:06.665Z,6.60
2023-05-05T05:07:33.976Z,6.43
2023-05-05T05:10:01.132Z,6.63
2023-05-05T05:12:28.276Z,3.03
2023-05-05T05:14:55.429Z,3.35
2023-05-05T05:17:23.782Z,5.60
2023-05-05T05:19:50.992Z,4.50
2023-05-05T05:22:18.132Z,3.85
2023-05-05T05:24:45.309Z,3.85
2023-05-05T05:27:12.527Z,8.60
2023-05-05T05:29:39.684Z,5.93
2023-05-05T05:32:06.934Z,3.58
2023-05-05T05:34:34.080Z,4.10
2023-05-05T05:37:01.440Z,3.55
2023-05-05T05:39:28.614Z,3.47
2023-05-05T05:41:55.738Z,4.93
2023-05-05T05:44:22.849Z,3.20
2023-05-05T05:46:49.945Z,3.45
2023-05-05T05:49:17.205Z,5.75
2023-05-05T05:51:44.388Z,3.13
2023-05-05T05:54:11.929Z,4.78
2023-05-05T05:56:39.090Z,4.78
2023-05-05T05:59:08.619Z,3.42
2023-05-05T06:01:35.702Z,3.67
2023-05-05T06:04:02.897Z,2.88
2023-05-05T06:06:30.100Z,5.20
2023-05-05T06:08:57.680Z,3.60
2023-05-05T06:11:24.781Z,2.28
2023-05-05T06:13:52.026Z,3.20
2023-05-05T06:16:19.182Z,3.10
2023-05-05T06:18:46.420Z,2.95
2023-05-05T06:21:13.533Z,4.00
2023-05-05T06:23:40.687Z,3.00
2023-05-05T06:26:07.796Z,4.47
2023-05-05T06:28:34.929Z,3.45
2023-05-05T06:31:02.158Z,3.00
2023-05-05T06:33:29.445Z,3.05
2023-05-05T06:35:56.641Z,4.80
2023-05-05T06:38:23.809Z,4.35
2023-05-05T06:40:50.930Z,2.50
2023-05-05T06:43:18.528Z,2.70
2023-05-05T06:45:46.029Z,2.80
2023-05-05T06:48:13.407Z,4.80
2023-05-05T06:50:40.848Z,6.47
2023-05-05T06:53:08.632Z,7.63
2023-05-05T06:55:35.754Z,7.25
2023-05-05T06:58:02.926Z,9.40
2023-05-05T07:00:30.111Z,8.32
2023-05-05T07:02:57.260Z,8.93
2023-05-05T07:05:24.431Z,8.48
2023-05-05T07:07:52.718Z,5.75
2023-05-05T07:10:19.883Z,12.40
2023-05-05T07:12:47.045Z,7.80
2023-05-05T07:15:26.745Z,14.75
2023-05-05T07:17:55.730Z,9.02
2023-05-05T07:20:22.960Z,7.38
2023-05-05T07:22:50.045Z,9.85
2023-05-05T07:25:17.191Z,8.32
2023-05-05T07:27:44.383Z,8.13
2023-05-05T07:30:15.378Z,10.73
2023-05-05T07:32:44.725Z,9.60
2023-05-05T07:35:11.918Z,8.45
2023-05-05T07:37:39.038Z,6.72
2023-05-05T07:40:06.759Z,8.65
2023-05-05T07:42:34.006Z,7.95
2023-05-05T07:45:01.115Z,9.48
2023-05-05T07:47:28.471Z,7.68
2023-05-05T07:49:55.603Z,9.20
2023-05-05T07:52:37.392Z,6.47
2023-05-05T07:55:10.665Z,8.57
2023-05-05T07:57:37.866Z,8.65
2023-05-05T08:00:05.435Z,7.97
2023-05-05T08:02:32.719Z,9.52
2023-05-05T08:04:59.982Z,8.85
2023-05-05T08:07:27.093Z,8.15
2023-05-05T08:09:54.204Z,9.43
2023-05-05T08:12:21.410Z,9.88
2023-05-05T08:14:48.541Z,9.32
2023-05-05T08:17:18.059Z,6.95
2023-05-05T08:19:45.323Z,7.75
2023-05-05T08:22:12.463Z,10.38
2023-05-05T08:24:39.661Z,7.85
2023-05-05T08:27:06.813Z,8.50
2023-05-05T08:29:33.954Z,11.15
2023-05-05T08:32:01.136Z,9.93
2023-05-05T08:34:28.456Z,7.80
2023-05-05T08:36:56.496Z,8.10
2023-05-05T08:39:23.635Z,7.30
2023-05-05T08:41:50.756Z,8.27
2023-05-05T08:44:17.867Z,12.80
2023-05-05T08:46:45.109Z,8.02
2023-05-05T08:49:16.323Z,9.85
2023-05-05T08:51:44.378Z,6.65
2023-05-05T08:54:16.096Z,8.38
2023-05-05T08:56:43.440Z,12.65
2023-05-05T08:59:12.073Z,8.35
2023-05-05T09:01:39.544Z,7.25
2023-05-05T09:04:07.770Z,7.53
2023-05-05T09:06:35.857Z,8.27
2023-05-05T09:09:03.355Z,8.82
2023-05-05T09:11:30.725Z,8.75
2023-05-05T09:13:57.880Z,7.18
2023-05-05T09:16:25.692Z,10.40
2023-05-05T09:19:02.291Z,7.82
2023-05-05T09:21:29.495Z,10.85
2023-05-05T09:24:12.512Z,9.30
2023-05-05T09:26:43.445Z,9.35
2023-05-05T09:29:10.751Z,9.90
2023-05-05T09:31:39.201Z,8.48
2023-05-05T09:34:16.667Z,10.60
2023-05-05T09:36:48.172Z,11.88
2023-05-05T09:39:19.245Z,5.22
2023-05-05T09:41:47.196Z,6.60
2023-05-05T09:44:17.635Z,5.60
2023-05-05T09:46:52.121Z,4.88
2023-05-05T09:49:25.245Z,6.05
2023-05-05T09:51:52.909Z,5.65
2023-05-05T09:54:24.152Z,7.00
2023-05-05T09:56:52.342Z,5.32
2023-05-05T09:59:19.980Z,7.47
2023-05-05T10:01:48.704Z,5.13
2023-05-05T10:04:25.680Z,7.22
2023-05-05T10:06:53.094Z,4.68
2023-05-05T10:09:20.251Z,4.65
2023-05-05T10:11:47.606Z,10.75
2023-05-05T10:14:15.928Z,9.05
2023-05-05T10:16:50.756Z,5.05
2023-05-05T10:19:19.686Z,4.28
2023-05-05T10:21:48.595Z,5.32
2023-05-05T10:24:22.692Z,4.05
2023-05-05T10:26:50.533Z,4.47
2023-05-05T10:29:40.902Z,5.15
2023-05-05T10:32:40.628Z,3.55
2023-05-05T10:35:03.645Z,5.00
2023-05-05T10:37:31.451Z,5.40
2023-05-05T10:39:59.446Z,4.13
2023-05-05T10:42:27.779Z,6.60
2023-05-05T10:44:54.998Z,3.63
2023-05-05T10:47:23.147Z,3.53
2023-05-05T10:49:56.500Z,4.32
2023-05-05T10:52:29.376Z,4.75
2023-05-05T10:55:12.287Z,2.97
2023-05-05T10:57:43.151Z,5.45
2023-05-05T11:00:10.994Z,4.93
2023-05-05T11:02:38.285Z,4.30
2023-05-05T11:05:08.643Z,4.18
2023-05-05T11:07:36.362Z,3.05
2023-05-05T11:10:07.842Z,3.90
2023-05-05T11:12:53.794Z,3.90
2023-05-05T11:15:27.842Z,4.47
2023-05-05T11:17:59.153Z,4.55
2023-05-05T11:20:58.757Z,3.95
2023-05-05T11:25:53.246Z,3.92
2023-05-05T11:28:23.209Z,2.95
2023-05-05T11:30:56.657Z,3.75
2023-05-05T11:33:31.493Z,4.32
2023-05-05T11:36:00.182Z,4.30
2023-05-05T11:38:31.575Z,5.00
2023-05-05T11:41:06.597Z,3.53
2023-05-05T11:43:33.751Z,3.92
2023-05-05T11:46:13.409Z,6.03
2023-05-05T11:48:46.713Z,3.92
2023-05-05T11:51:14.634Z,3.65
2023-05-05T11:53:45.996Z,3.55
2023-05-05T11:56:21.908Z,3.80
2023-05-05T11:58:49.560Z,12.40
2023-05-05T12:01:16.874Z,8.85
2023-05-05T12:03:45.439Z,7.20
2023-05-05T12:06:13.675Z,9.95
2023-05-05T12:08:41.305Z,17.15
2023-05-05T12:11:09.352Z,7.10
2023-05-05T12:13:36.604Z,3.88
2023-05-05T12:16:13.913Z,8.90
2023-05-05T12:18:41.669Z,3.95
2023-05-05T12:21:18.422Z,8.27
2023-05-05T12:23:45.999Z,6.85
2023-05-05T12:26:29.683Z,9.45
2023-05-05T12:28:57.780Z,5.25
2023-05-05T12:31:34.850Z,7.15
2023-05-05T12:34:01.991Z,7.18
2023-05-05T12:36:30.551Z,4.65
2023-05-05T12:38:58.910Z,4.50
2023-05-05T12:41:26.858Z,3.90
2023-05-05T12:43:57.201Z,7.45
2023-05-05T12:46:24.547Z,2.97
2023-05-05T12:49:07.857Z,4.15
2023-05-05T12:51:36.215Z,4.15
2023-05-05T12:54:06.529Z,3.55
2023-05-05T12:56:34.195Z,4.45
2023-05-05T12:59:02.161Z,4.18
2023-05-05T13:01:29.994Z,2.72
2023-05-05T13:04:10.915Z,3.42
2023-05-05T13:06:38.853Z,2.63
2023-05-05T13:09:06.282Z,4.47
2023-05-05T13:11:37.315Z,3.03
2023-05-05T13:14:04.725Z,4.65
2023-05-05T13:16:31.921Z,3.97
2023-05-05T13:18:59.146Z,4.68
2023-05-05T13:21:26.278Z,3.00
2023-05-05T13:23:53.968Z,4.47
2023-05-05T13:26:21.356Z,4.50
2023-05-05T13:28:48.629Z,3.58
2023-05-05T13:31:15.733Z,4.25
2023-05-05T13:33:42.888Z,3.03
2023-05-05T13:36:10.126Z,2.28
2023-05-05T13:38:37.357Z,3.35
2023-05-05T13:41:04.718Z,3.05
2023-05-05T13:43:31.868Z,5.22
2023-05-05T13:46:08.743Z,3.47
2023-05-05T13:48:43.716Z,3.55
2023-05-05T13:51:10.944Z,4.38
2023-05-05T13:53:39.862Z,5.07
2023-05-05T13:56:07.111Z,4.50
2023-05-05T13:58:35.406Z,3.20
2023-05-05T14:01:04.394Z,4.38
2023-05-05T14:03:31.939Z,3.63
2023-05-05T14:05:59.130Z,2.30
2023-05-05T14:08:26.243Z,2.67
2023-05-05T14:10:53.385Z,3.60
2023-05-05T14:13:20.622Z,2.85
2023-05-05T14:15:50.248Z,3.08
2023-05-05T14:18:17.452Z,3.67
2023-05-05T14:20:44.670Z,3.90
2023-05-05T14:23:11.798Z,2.80
2023-05-05T14:25:39.337Z,3.78
2023-05-05T14:28:07.146Z,2.45
2023-05-05T14:30:34.262Z,3.00
2023-05-05T14:33:01.458Z,2.72
2023-05-05T14:35:28.616Z,4.03
2023-05-05T14:37:55.748Z,4.30
2023-05-05T14:40:22.908Z,2.78
2023-05-05T14:42:56.504Z,2.97
2023-05-05T14:45:23.795Z,1.95
2023-05-05T14:47:50.987Z,2.47
2023-05-05T14:50:18.114Z,2.42
2023-05-05T14:52:45.350Z,3.75
2023-05-05T14:55:12.532Z,6.90
2023-05-05T14:57:39.768Z,2.50
2023-05-05T15:00:08.388Z,3.47
2023-05-05T15:02:35.655Z,3.65
2023-05-05T15:05:02.790Z,7.85
2023-05-05T15:07:29.945Z,4.30
2023-05-05T15:09:57.061Z,9.52
2023-05-05T15:12:24.251Z,17.70
2023-05-05T15:14:51.428Z,22.67
2023-05-05T15:17:18.694Z,14.13
2023-05-05T15:19:45.810Z,19.77
2023-05-05T15:22:12.944Z,13.93
2023-05-05T15:24:40.082Z,12.60
2023-05-05T15:27:07.286Z,10.70
2023-05-05T15:29:34.399Z,14.25
2023-05-05T15:32:01.675Z,12.40
2023-05-05T15:34:28.809Z,11.77
2023-05-05T15:36:56.098Z,13.13
2023-05-05T15:39:23.186Z,11.88
2023-05-05T15:41:50.313Z,11.90
2023-05-05T15:44:17.505Z,12.95
2023-05-05T15:46:44.739Z,11.52
2023-05-05T15:49:11.905Z,13.43
2023-05-05T15:51:39.108Z,10.32
2023-05-05T15:54:06.258Z,9.60
2023-05-05T15:56:33.799Z,12.35
2023-05-05T15:59:01.620Z,10.70
2023-05-05T16:01:28.788Z,9.55
2023-05-05T16:03:57.771Z,9.25
2023-05-05T16:06:24.921Z,8.05
2023-05-05T16:08:52.069Z,9.73
2023-05-05T16:11:22.293Z,8.93
2023-05-05T16:13:50.105Z,9.45
2023-05-05T16:16:17.339Z,7.38
2023-05-05T16:18:44.522Z,6.90
2023-05-05T16:21:12.249Z,7.88
2023-05-05T16:23:39.527Z,9.32
2023-05-05T16:26:06.740Z,9.05
2023-05-05T16:28:34.302Z,8.32
2023-05-05T16:31:02.360Z,6.43
2023-05-05T16:33:29.818Z,8.85
2023-05-05T16:35:57.389Z,8.85
2023-05-05T16:38:24.552Z,7.43
2023-05-05T16:40:51.735Z,10.07
2023-05-05T16:43:19.629Z,8.93
2023-05-05T16:45:46.832Z,4.55
2023-05-05T16:48:14.775Z,9.20
2023-05-05T16:50:41.904Z,5.82
2023-05-05T16:53:09.996Z,6.05
2023-05-05T16:55:37.724Z,3.55
2023-05-05T16:58:04.958Z,5.22
2023-05-05T17:00:32.091Z,4.57
2023-05-05T17:02:59.270Z,6.07
2023-05-05T17:05:26.915Z,5.80
2023-05-05T17:07:54.106Z,5.93
2023-05-05T17:10:21.274Z,5.47
2023-05-05T17:12:48.532Z,4.32
2023-05-05T17:15:16.137Z,4.55
2023-05-05T17:17:43.324Z,4.95
2023-05-05T17:20:10.956Z,7.55
2023-05-05T17:22:38.109Z,5.03
2023-05-05T17:25:05.806Z,6.55
2023-05-05T17:27:32.969Z,6.15
2023-05-05T17:30:00.152Z,6.70
2023-05-05T17:32:27.319Z,5.05
2023-05-05T17:34:54.496Z,5.68
2023-05-05T17:37:21.778Z,7.50
2023-05-05T17:39:48.911Z,5.88
2023-05-05T17:42:18.746Z,5.82
2023-05-05T17:44:47.524Z,4.75
2023-05-05T17:47:14.827Z,7.07
2023-05-05T17:49:41.965Z,7.10
2023-05-05T17:52:09.109Z,4.40
2023-05-05T17:54:37.263Z,6.15
2023-05-05T17:57:05.101Z,3.20
2023-05-05T17:59:32.398Z,5.55
2023-05-05T18:01:59.697Z,4.30
2023-05-05T18:04:26.840Z,5.35
2023-05-05T18:06:58.153Z,4.00
2023-05-05T18:09:25.304Z,6.10
2023-05-05T18:11:53.936Z,5.05
2023-05-05T18:14:22.424Z,4.13
2023-05-05T18:16:50.721Z,9.38
2023-05-05T18:19:17.881Z,3.88
2023-05-05T18:21:44.976Z,6.68
2023-05-05T18:26:49.003Z,4.50
2023-05-05T18:29:16.253Z,4.72
2023-05-05T18:31:48.344Z,5.07
2023-05-05T18:34:16.847Z,4.90
2023-05-05T18:36:44.003Z,5.00
2023-05-05T18:39:11.422Z,4.72
2023-05-05T18:41:38.698Z,3.70
2023-05-05T18:44:05.834Z,3.63
2023-05-05T18:46:33.502Z,3.22
2023-05-05T18:49:00.845Z,4.22
2023-05-05T18:51:28.634Z,4.45
2023-05-05T18:53:55.872Z,4.25
2023-05-05T18:56:22.945Z,4.15
2023-05-05T18:58:50.026Z,4.72
2023-05-05T19:01:17.308Z,2.80
2023-05-05T19:03:50.596Z,3.92
2023-05-05T19:06:17.874Z,4.07
2023-05-05T19:08:45.531Z,3.28
2023-05-05T19:11:14.843Z,3.38
2023-05-05T19:13:42.482Z,3.10
2023-05-05T19:16:10.988Z,3.50
2023-05-05T19:18:38.473Z,3.33
2023-05-05T19:21:05.716Z,3.88
2023-05-05T19:23:33.357Z,2.40
2023-05-05T19:26:00.958Z,2.53
2023-05-05T19:28:28.058Z,2.85
2023-05-05T19:30:55.215Z,3.78
2023-05-05T19:33:22.345Z,5.13
2023-05-05T19:35:49.582Z,2.47
2023-05-05T19:38:16.827Z,4.72
2023-05-05T19:40:44.038Z,3.83
2023-05-05T19:43:11.329Z,3.42
2023-05-05T19:45:38.582Z,3.40
2023-05-05T19:48:06.043Z,2.00
2023-05-05T19:50:33.152Z,3.42
2023-05-05T19:53:00.307Z,2.97
2023-05-05T19:55:27.596Z,3.13
2023-05-05T19:57:54.777Z,3.40
2023-05-05T20:00:22.015Z,2.88
2023-05-05T20:02:49.641Z,4.80
2023-05-05T20:05:17.490Z,3.30
2023-05-05T20:07:46.948Z,3.03
2023-05-05T20:10:14.362Z,2.70
2023-05-05T20:12:47.621Z,2.65
2023-05-05T20:15:18.531Z,3.20
2023-05-05T20:17:46.889Z,3.28
2023-05-05T20:20:18.766Z,3.03
2023-05-05T20:22:46.559Z,3.17
2023-05-05T20:25:16.068Z,4.18
2023-05-05T20:27:43.231Z,5.65
2023-05-05T20:30:11.062Z,5.35
2023-05-05T20:32:39.033Z,3.70
2023-05-05T20:35:06.474Z,7.55
2023-05-05T20:37:33.576Z,11.35
2023-05-05T20:40:00.839Z,4.70
2023-05-05T20:42:29.504Z,5.05
2023-05-05T20:44:56.886Z,9.27
2023-05-05T20:47:24.255Z,18.65
2023-05-05T20:49:52.430Z,5.18
2023-05-05T20:52:19.902Z,5.35
2023-05-05T20:54:47.164Z,3.83
2023-05-05T20:57:15.483Z,9.15
2023-05-05T20:59:42.564Z,9.02
2023-05-05T21:02:09.718Z,4.78
2023-05-05T21:04:36.927Z,3.92
2023-05-05T21:07:04.106Z,4.93
2023-05-05T21:09:31.828Z,7.32
2023-05-05T21:11:59.012Z,2.65
2023-05-05T21:14:26.115Z,3.15
2023-05-05T21:16:53.285Z,3.33
2023-05-05T21:19:21.164Z,5.32
2023-05-05T21:21:48.884Z,7.18
2023-05-05T21:24:16.384Z,3.25
2023-05-05T21:26:46.744Z,4.18
2023-05-05T21:29:13.897Z,3.30
2023-05-05T21:31:41.111Z,3.47
2023-05-05T21:34:08.266Z,2.95
2023-05-05T21:36:36.279Z,5.70
2023-05-05T21:39:03.412Z,3.35
2023-05-05T21:41:30.663Z,4.50
2023-05-05T21:43:58.504Z,6.68
2023-05-05T21:46:25.813Z,2.65
2023-05-05T21:48:52.969Z,3.20
2023-05-05T21:51:22.504Z,2.67
2023-05-05T21:53:49.644Z,3.92
2023-05-05T21:56:16.902Z,3.40
2023-05-05T21:58:44.546Z,3.38
2023-05-05T22:01:12.574Z,4.25
2023-05-05T22:03:41.105Z,3.80
2023-05-05T22:06:08.345Z,3.20
2023-05-05T22:08:35.459Z,3.72
2023-05-05T22:11:03.880Z,5.00
2023-05-05T22:13:30.988Z,2.97
2023-05-05T22:15:58.134Z,5.82
2023-05-05T22:18:25.293Z,3.47
2023-05-05T22:20:53.068Z,3.83
2023-05-05T22:23:20.204Z,5.13
2023-05-05T22:25:47.315Z,4.72
2023-05-05T22:28:14.400Z,3.03
2023-05-05T22:30:41.562Z,4.03
2023-05-05T22:33:08.998Z,6.07
2023-05-05T22:35:37.653Z,10.13
2023-05-05T22:38:04.708Z,4.32
2023-05-05T22:40:31.887Z,4.60
2023-05-05T22:42:59.332Z,3.65
2023-05-05T22:45:26.431Z,3.33
2023-05-05T22:47:54.045Z,9.15
2023-05-05T22:50:21.230Z,3.38
2023-05-05T22:52:48.320Z,2.60
2023-05-05T22:55:15.979Z,3.53
2023-05-05T22:57:43.261Z,2.50
2023-05-05T23:00:10.766Z,4.35
2023-05-05T23:02:38.419Z,3.17
2023-05-05T23:05:05.995Z,2.90
2023-05-05T23:07:33.092Z,3.15
2023-05-05T23:10:00.291Z,2.67
2023-05-05T23:12:27.420Z,4.78
2023-05-05T23:14:54.561Z,1.98
2023-05-05T23:17:21.872Z,3.95
2023-05-05T23:19:49.453Z,3.28
2023-05-05T23:22:16.638Z,4.72
2023-05-05T23:24:43.733Z,2.63
2023-05-05T23:27:10.954Z,2.67
2023-05-05T23:29:38.076Z,3.22
2023-05-05T23:32:05.380Z,4.65
2023-05-05T23:34:32.519Z,2.25
2023-05-05T23:36:59.627Z,3.72
2023-05-05T23:39:26.709Z,3.33
2023-05-05T23:41:53.890Z,2.20
2023-05-05T23:44:21.013Z,4.68
2023-05-05T23:46:48.160Z,2.28
2023-05-05T23:49:15.337Z,3.15
2023-05-05T23:51:42.501Z,3.83
2023-05-05T23:54:09.599Z,2.25
2023-05-05T23:56:36.930Z,2.17
2023-05-05T23:59:05.331Z,2.67
